Nearby METAR Reports

 

EBAW - Antwerp/Deurne, Belgium
Distance from station: SSE 9km
Ultima actualizare: 20/06/2024 08:20
Senin
Senin
 Vânt dela ENE
Vântul: ENE 9 km/h
Temperatura: 15°C
Punct de rouă: 11°C
Umiditate: 77%
Barometru: 1021 hPa
Sumar: Senin
Visibility: greater than 10 km
2024/06/20 06:20 EBAW 200620Z 07005KT CAVOK 15/11 Q1021 NOSIG
EHWO - Woensdrecht Rnla, Netherlands
Distance from station: NNV 20km
Ultima actualizare: 20/06/2024 07:55
Acoperit cu nori
Acoperit cu nori
 Vânt dela NE
Vântul: NE 13 km/h
Temperatura: 14°C
Punct de rouă: 12°C
Umiditate: 88%
Barometru: 1020 hPa
Clouds: Acoperit cu nori
Visibility: 10 km
Cloud details: Acoperit cu nori 3658 m
2024/06/20 05:55 EHWO 200555Z AUTO 05007KT 010V100 9999 OVC120 14/12 Q1020 BLU
 
EBBR - Brussels Nationa, Belgium
Distance from station: S 43km
Ultima actualizare: 20/06/2024 08:20
Senin
Senin
 Vânt dela NNE
Vântul: NNE 6 km/h
Temperatura: 14°C
Punct de rouă: 12°C
Umiditate: 88%
Barometru: 1020 hPa
Sumar: Senin
Visibility: greater than 10 km
2024/06/20 06:20 EBBR 200620Z 03003KT CAVOK 14/12 Q1020 NOSIG
EHGR - Gilze-Rijen Rnla, Netherlands
Distance from station: NE 47km
Ultima actualizare: 20/06/2024 07:55
Acoperit cu nori
Acoperit cu nori
 Vânt dela E
Vântul: E 9 km/h
Temperatura: 14°C
Punct de rouă: 12°C
Umiditate: 88%
Barometru: 1021 hPa
Clouds: Acoperit cu nori
Visibility: 10 km
Cloud details: In mare parte înorat 6706 m
Acoperit cu nori 8839 m
2024/06/20 05:55 EHGR 200555Z AUTO 08005KT 040V120 9999 BKN220 OVC290 14/12 Q1021 BLU
 
EBDT - Schaffen, Belgium
Distance from station: ESE 54km
Ultima actualizare: 20/06/2024 07:55
Few Clouds
Few Clouds
 Vânt dela ENE
Vântul: ENE 7 km/h
Temperatura: 14°C
Punct de rouă: 11°C
Umiditate: 82%
Barometru: 1020 hPa
Clouds: Few Clouds
Visibility: 10 km
Cloud details: Few Clouds 3353 m
2024/06/20 05:55 EBDT 200555Z AUTO 07004KT 9999 FEW110/// 14/11 Q1020 BLU
EHFS - Vlissingen, Netherlands
Distance from station: VNV 60km
Ultima actualizare: 20/06/2024 07:55
Parțial înorat
Parțial înorat
 Vânt dela NNE
Vântul: NNE 15 km/h
Temperatura: 14°C
Punct de rouă: 12°C
Umiditate: 88%
Barometru: 1021 hPa
Clouds: Parțial înorat
Visibility: 10 km
2024/06/20 05:55 EHFS 200555Z AUTO 03008KT 9999 NSC 14/12 Q1021
 
EBBE - Beauvechain (baf, Belgium
Distance from station: SSE 64km
Ultima actualizare: 20/06/2024 07:55
In mare parte înorat
In mare parte înorat
 Vânt dela ENE
Vântul: ENE 11 km/h
Temperatura: 13°C
Punct de rouă: 12°C
Umiditate: 94%
Barometru: 1019 hPa
Clouds: In mare parte înorat
Visibility: 10 km
Cloud details: Parțial înorat 3658 m
In mare parte înorat 4572 m
2024/06/20 05:55 EBBE 200555Z 07006KT 9999 SCT120 BKN150 13/12 Q1019 BLU BLU
EHEH - Eindhoven Rnlafb, Netherlands
Distance from station: ENE 69km
Ultima actualizare: 20/06/2024 07:55
Acoperit cu nori
Acoperit cu nori
 Vânt dela ENE
Vântul: ENE 7 km/h
Temperatura: 15°C
Punct de rouă: 11°C
Umiditate: 77%
Barometru: 1021 hPa
Clouds: Acoperit cu nori
Visibility: 10 km
Cloud details: Acoperit cu nori 7315 m
2024/06/20 05:55 EHEH 200555Z AUTO 07004KT 040V120 9999 OVC240 15/11 Q1021 BLU NOSIG
 
EBBL - Kleine-Brogel(Ba, Belgium
Distance from station: E 74km
Ultima actualizare: 20/06/2024 07:55
In mare parte înorat
In mare parte înorat
 Vânt dela ENE
Vântul: ENE 6 km/h
Temperatura: 14°C
Punct de rouă: 12°C
Umiditate: 88%
Barometru: 1020 hPa
Clouds: In mare parte înorat
Visibility: 10 km
Cloud details: In mare parte înorat 9144 m
2024/06/20 05:55 EBBL 200555Z 06003KT 9999 BKN300 14/12 Q1020 BLU BLU
EHRD - Rotterdam Airpor, Netherlands
Distance from station: N 75km
Ultima actualizare: 20/06/2024 07:55
Parțial înorat
Parțial înorat
 Vânt dela ENE
Vântul: ENE 9 km/h
Temperatura: 13°C
Punct de rouă: 11°C
Umiditate: 88%
Barometru: 1021 hPa
Clouds: Parțial înorat
Visibility: 10 km
2024/06/20 05:55 EHRD 200555Z AUTO 07005KT 9999 NSC 13/11 Q1021 NOSIG
 
EHSC - Goeree Le Sea, Netherlands
Distance from station: NV 89km
Ultima actualizare: 20/06/2024 07:55

 Vânt dela NE
Vântul: NE 22 km/h
Temperatura: 14°C
Punct de rouă: 11°C
Umiditate: 82%
Barometru: 1021 hPa
Visibility: 10 km
2024/06/20 05:55 EHSC 200555Z AUTO 05012KT 9999 ///////// 14/11 Q1021 W16/H8
EBCI - Charleroi/Gossel, Belgium
Distance from station: S 90km
Ultima actualizare: 20/06/2024 08:20
Senin
Senin
 Vânt dela NNE
Vântul: NNE 9 km/h
Temperatura: 14°C
Punct de rouă: 12°C
Umiditate: 88%
Barometru: 1020 hPa
Sumar: Senin
Visibility: greater than 10 km
2024/06/20 06:20 EBCI 200620Z 02005KT 300V050 CAVOK 14/12 Q1020 NOSIG
 
EBCV - Chievres Ab, Belgium
Distance from station: SSV 90km
Ultima actualizare: 20/06/2024 07:55
Acoperit cu nori
Acoperit cu nori
 Vânt dela N
Vântul: N 9 km/h
Temperatura: 14°C
Punct de rouă: 12°C
Umiditate: 88%
Barometru: 1019 hPa
Clouds: Acoperit cu nori
Visibility: 10 km
Cloud details: Acoperit cu nori 3048 m
2024/06/20 05:55 EBCV 200555Z AUTO 01005KT 9999 OVC100/// 14/12 Q1019 BLU
EHVK - Volkel Rnlafb, Netherlands
Distance from station: ENE 97km
Ultima actualizare: 20/06/2024 07:55
Acoperit cu nori
Acoperit cu nori
 Vânt dela ENE
Vântul: ENE 11 km/h
Temperatura: 14°C
Punct de rouă: 11°C
Umiditate: 82%
Barometru: 1021 hPa
Clouds: Acoperit cu nori
Visibility: 10 km
Cloud details: Acoperit cu nori 8839 m
2024/06/20 05:55 EHVK 200555Z AUTO 07006KT 050V130 9999 OVC290 14/11 Q1021 BLU NOSIG
 
EBLG - Bierset/Liege (c, Belgium
Distance from station: SE 102km
Ultima actualizare: 20/06/2024 08:20
Senin
Senin
 Vânt dela NNE
Vântul: NNE 13 km/h
Temperatura: 14°C
Punct de rouă: 12°C
Umiditate: 88%
Barometru: 1019 hPa
Sumar: Senin
Visibility: greater than 10 km
2024/06/20 06:20 EBLG 200620Z 03007KT CAVOK 14/12 Q1019 NOSIG
EHBK - Zuid-Limburg/Bee, Netherlands
Distance from station: ESE 102km
Ultima actualizare: 20/06/2024 07:55
Parțial înorat
Parțial înorat
 Vânt dela ENE
Vântul: ENE 9 km/h
Temperatura: 14°C
Punct de rouă: 12°C
Umiditate: 88%
Barometru: 1020 hPa
Clouds: Parțial înorat
Visibility: 10 km
2024/06/20 05:55 EHBK 200555Z AUTO 07005KT 040V110 9999 NSC 14/12 Q1020 NOSIG
 
EBOS - Oostende Airport, Belgium
Distance from station: V 108km
Ultima actualizare: 20/06/2024 08:20
Senin
Senin
 Vânt dela NE
Vântul: NE 19 km/h
Temperatura: 15°C
Punct de rouă: 12°C
Umiditate: 82%
Barometru: 1021 hPa
Sumar: Senin
Visibility: greater than 10 km
2024/06/20 06:20 EBOS 200620Z 05010KT CAVOK 15/12 Q1021 NOSIG
EHSA - Euro Platform, Netherlands
Distance from station: NV 112km
Ultima actualizare: 20/06/2024 07:55

 Vânt dela NE
Vântul: NE 22 km/h
Temperatura: 14°C
Punct de rouă: 11°C
Umiditate: 82%
Barometru: 1021 hPa
Visibility: 10 km
2024/06/20 05:55 EHSA 200555Z AUTO 04012KT 9999 ///////// 14/11 Q1021 W15/H8
 
EHAM - Amsterdam/Schiph, Netherlands
Distance from station: NNE 118km
Ultima actualizare: 20/06/2024 07:55
Senin
Senin
 Vânt dela ENE
Vântul: ENE 13 km/h
Temperatura: 13°C
Punct de rouă: 11°C
Umiditate: 88%
Barometru: 1021 hPa
Sumar: Senin
Visibility: greater than 10 km
2024/06/20 05:55 EHAM 200555Z 06007KT CAVOK 13/11 Q1021 NOSIG
ETNG - Geilenkirchen(Na, Germany
Distance from station: ESE 118km
Ultima actualizare: 20/06/2024 07:50
Senin
Senin
 Vânt dela E
Vântul: E 9 km/h
Temperatura: 14°C
Punct de rouă: 12°C
Umiditate: 88%
Barometru: 1020 hPa
Sumar: Senin
Visibility: greater than 10 km
2024/06/20 05:50 ETNG 200550Z 10005KT CAVOK 14/12 Q1020 NOSIG